sensor_id;sensor_type;location;lat;lon;timestamp;pressure;altitude;pressure_sealevel;temperature
12061;BMP180;6091;51.432;6.880;2023-04-01T00:01:22;98544.00;;;25.00
12061;BMP180;6091;51.432;6.880;2023-04-01T00:03:49;98564.00;;;25.00
12061;BMP180;6091;51.432;6.880;2023-04-01T00:06:18;98570.00;;;25.00
12061;BMP180;6091;51.432;6.880;2023-04-01T00:08:46;98564.00;;;25.00
12061;BMP180;6091;51.432;6.880;2023-04-01T00:11:14;98559.00;;;25.00
12061;BMP180;6091;51.432;6.880;2023-04-01T00:13:43;98571.00;;;25.00
12061;BMP180;6091;51.432;6.880;2023-04-01T00:16:10;98543.00;;;25.00
12061;BMP180;6091;51.432;6.880;2023-04-01T00:18:49;98570.00;;;25.00
12061;BMP180;6091;51.432;6.880;2023-04-01T00:21:17;98567.00;;;25.10
12061;BMP180;6091;51.432;6.880;2023-04-01T00:23:44;98564.00;;;25.10
12061;BMP180;6091;51.432;6.880;2023-04-01T00:26:11;98557.00;;;25.10
12061;BMP180;6091;51.432;6.880;2023-04-01T00:28:39;98567.00;;;25.20
12061;BMP180;6091;51.432;6.880;2023-04-01T00:31:09;98566.00;;;25.20
12061;BMP180;6091;51.432;6.880;2023-04-01T00:33:39;98559.00;;;25.20
12061;BMP180;6091;51.432;6.880;2023-04-01T00:36:16;98550.00;;;25.30
12061;BMP180;6091;51.432;6.880;2023-04-01T00:38:45;98552.00;;;25.30
12061;BMP180;6091;51.432;6.880;2023-04-01T00:41:14;98561.00;;;25.40
12061;BMP180;6091;51.432;6.880;2023-04-01T00:43:46;98559.00;;;25.30
12061;BMP180;6091;51.432;6.880;2023-04-01T00:46:14;98564.00;;;25.40
12061;BMP180;6091;51.432;6.880;2023-04-01T00:48:50;98550.00;;;25.40
12061;BMP180;6091;51.432;6.880;2023-04-01T00:51:24;98551.00;;;25.50
12061;BMP180;6091;51.432;6.880;2023-04-01T00:53:56;98556.00;;;25.50
12061;BMP180;6091;51.432;6.880;2023-04-01T00:56:30;98558.00;;;25.50
12061;BMP180;6091;51.432;6.880;2023-04-01T00:59:06;98543.00;;;25.50
12061;BMP180;6091;51.432;6.880;2023-04-01T01:01:36;98554.00;;;25.50
12061;BMP180;6091;51.432;6.880;2023-04-01T01:04:07;98539.00;;;25.50
12061;BMP180;6091;51.432;6.880;2023-04-01T01:06:50;98554.00;;;25.50
12061;BMP180;6091;51.432;6.880;2023-04-01T01:09:30;98557.00;;;25.40
12061;BMP180;6091;51.432;6.880;2023-04-01T01:12:13;98556.00;;;25.40
12061;BMP180;6091;51.432;6.880;2023-04-01T01:18:05;98543.00;;;25.30
12061;BMP180;6091;51.432;6.880;2023-04-01T01:27:04;98547.00;;;25.30
12061;BMP180;6091;51.432;6.880;2023-04-01T01:35:38;98538.00;;;25.20
12061;BMP180;6091;51.432;6.880;2023-04-01T01:38:16;98534.00;;;25.20
12061;BMP180;6091;51.432;6.880;2023-04-01T01:40:49;98539.00;;;25.20
12061;BMP180;6091;51.432;6.880;2023-04-01T01:43:29;98535.00;;;25.20
12061;BMP180;6091;51.432;6.880;2023-04-01T01:46:01;98539.00;;;25.20
12061;BMP180;6091;51.432;6.880;2023-04-01T01:48:31;98534.00;;;25.20
12061;BMP180;6091;51.432;6.880;2023-04-01T01:51:00;98524.00;;;25.20
12061;BMP180;6091;51.432;6.880;2023-04-01T01:53:27;98531.00;;;25.10
12061;BMP180;6091;51.432;6.880;2023-04-01T01:55:54;98527.00;;;25.10
12061;BMP180;6091;51.432;6.880;2023-04-01T01:58:32;98527.00;;;25.10
12061;BMP180;6091;51.432;6.880;2023-04-01T02:01:17;98530.00;;;25.10
12061;BMP180;6091;51.432;6.880;2023-04-01T02:03:47;98536.00;;;25.10
12061;BMP180;6091;51.432;6.880;2023-04-01T02:06:21;98531.00;;;25.10
12061;BMP180;6091;51.432;6.880;2023-04-01T02:09:03;98540.00;;;25.10
12061;BMP180;6091;51.432;6.880;2023-04-01T02:11:44;98531.00;;;25.10
12061;BMP180;6091;51.432;6.880;2023-04-01T02:14:23;98539.00;;;25.00
12061;BMP180;6091;51.432;6.880;2023-04-01T02:17:05;98538.00;;;25.00
12061;BMP180;6091;51.432;6.880;2023-04-01T02:19:45;98542.00;;;25.00
12061;BMP180;6091;51.432;6.880;2023-04-01T02:22:20;98544.00;;;25.00
12061;BMP180;6091;51.432;6.880;2023-04-01T02:24:52;98542.00;;;25.00
12061;BMP180;6091;51.432;6.880;2023-04-01T02:27:21;98546.00;;;25.00
12061;BMP180;6091;51.432;6.880;2023-04-01T02:29:48;98549.00;;;25.00
12061;BMP180;6091;51.432;6.880;2023-04-01T02:32:18;98554.00;;;25.00
12061;BMP180;6091;51.432;6.880;2023-04-01T02:34:47;98549.00;;;25.00
12061;BMP180;6091;51.432;6.880;2023-04-01T02:37:15;98554.00;;;25.00
12061;BMP180;6091;51.432;6.880;2023-04-01T02:39:43;98559.00;;;25.00
12061;BMP180;6091;51.432;6.880;2023-04-01T02:42:10;98571.00;;;25.00
12061;BMP180;6091;51.432;6.880;2023-04-01T02:44:37;98576.00;;;25.00
12061;BMP180;6091;51.432;6.880;2023-04-01T02:47:07;98570.00;;;25.00
12061;BMP180;6091;51.432;6.880;2023-04-01T02:49:35;98582.00;;;25.00
12061;BMP180;6091;51.432;6.880;2023-04-01T02:52:02;98571.00;;;25.00
12061;BMP180;6091;51.432;6.880;2023-04-01T02:54:29;98570.00;;;25.00
12061;BMP180;6091;51.432;6.880;2023-04-01T02:56:56;98565.00;;;25.00
12061;BMP180;6091;51.432;6.880;2023-04-01T02:59:23;98563.00;;;25.00
12061;BMP180;6091;51.432;6.880;2023-04-01T03:01:50;98553.00;;;25.00
12061;BMP180;6091;51.432;6.880;2023-04-01T03:04:17;98564.00;;;25.00
12061;BMP180;6091;51.432;6.880;2023-04-01T03:06:44;98560.00;;;25.00
12061;BMP180;6091;51.432;6.880;2023-04-01T03:09:12;98560.00;;;25.00
12061;BMP180;6091;51.432;6.880;2023-04-01T03:11:38;98567.00;;;25.00
12061;BMP180;6091;51.432;6.880;2023-04-01T03:14:06;98569.00;;;25.00
12061;BMP180;6091;51.432;6.880;2023-04-01T03:16:33;98567.00;;;25.00
12061;BMP180;6091;51.432;6.880;2023-04-01T03:19:00;98569.00;;;25.00
12061;BMP180;6091;51.432;6.880;2023-04-01T03:21:28;98573.00;;;25.00
12061;BMP180;6091;51.432;6.880;2023-04-01T03:23:55;98578.00;;;25.00
12061;BMP180;6091;51.432;6.880;2023-04-01T03:26:23;98581.00;;;25.00
12061;BMP180;6091;51.432;6.880;2023-04-01T03:28:50;98562.00;;;25.00
12061;BMP180;6091;51.432;6.880;2023-04-01T03:31:17;98569.00;;;25.00
12061;BMP180;6091;51.432;6.880;2023-04-01T03:33:44;98573.00;;;25.00
12061;BMP180;6091;51.432;6.880;2023-04-01T03:36:13;98575.00;;;25.00
12061;BMP180;6091;51.432;6.880;2023-04-01T03:38:41;98573.00;;;25.00
12061;BMP180;6091;51.432;6.880;2023-04-01T03:41:17;98578.00;;;24.90
12061;BMP180;6091;51.432;6.880;2023-04-01T03:43:44;98578.00;;;24.90
12061;BMP180;6091;51.432;6.880;2023-04-01T03:46:17;98582.00;;;24.90
12061;BMP180;6091;51.432;6.880;2023-04-01T03:48:43;98579.00;;;24.90
12061;BMP180;6091;51.432;6.880;2023-04-01T03:51:11;98581.00;;;24.90
12061;BMP180;6091;51.432;6.880;2023-04-01T03:53:38;98578.00;;;25.00
12061;BMP180;6091;51.432;6.880;2023-04-01T03:56:07;98578.00;;;25.00
12061;BMP180;6091;51.432;6.880;2023-04-01T03:58:35;98584.00;;;25.00
12061;BMP180;6091;51.432;6.880;2023-04-01T04:01:02;98578.00;;;24.90
12061;BMP180;6091;51.432;6.880;2023-04-01T04:03:29;98583.00;;;25.00
12061;BMP180;6091;51.432;6.880;2023-04-01T04:05:56;98578.00;;;25.00
12061;BMP180;6091;51.432;6.880;2023-04-01T04:08:23;98574.00;;;25.00
12061;BMP180;6091;51.432;6.880;2023-04-01T04:10:57;98580.00;;;25.00
12061;BMP180;6091;51.432;6.880;2023-04-01T04:13:23;98582.00;;;25.00
12061;BMP180;6091;51.432;6.880;2023-04-01T04:15:50;98586.00;;;25.00
12061;BMP180;6091;51.432;6.880;2023-04-01T04:18:17;98592.00;;;25.00
12061;BMP180;6091;51.432;6.880;2023-04-01T04:20:45;98598.00;;;25.00
12061;BMP180;6091;51.432;6.880;2023-04-01T04:23:18;98587.00;;;25.00
12061;BMP180;6091;51.432;6.880;2023-04-01T04:26:04;98588.00;;;25.00
12061;BMP180;6091;51.432;6.880;2023-04-01T04:28:32;98593.00;;;25.00
12061;BMP180;6091;51.432;6.880;2023-04-01T04:31:00;98589.00;;;25.00
12061;BMP180;6091;51.432;6.880;2023-04-01T04:33:28;98595.00;;;25.00
12061;BMP180;6091;51.432;6.880;2023-04-01T04:35:57;98594.00;;;25.00
12061;BMP180;6091;51.432;6.880;2023-04-01T04:38:25;98599.00;;;25.00
12061;BMP180;6091;51.432;6.880;2023-04-01T04:40:53;98601.00;;;25.00
12061;BMP180;6091;51.432;6.880;2023-04-01T04:43:20;98598.00;;;25.00
12061;BMP180;6091;51.432;6.880;2023-04-01T04:45:48;98602.00;;;24.90
12061;BMP180;6091;51.432;6.880;2023-04-01T04:48:16;98600.00;;;24.90
12061;BMP180;6091;51.432;6.880;2023-04-01T04:50:48;98609.00;;;24.90
12061;BMP180;6091;51.432;6.880;2023-04-01T04:53:18;98601.00;;;24.90
12061;BMP180;6091;51.432;6.880;2023-04-01T04:55:48;98610.00;;;24.90
12061;BMP180;6091;51.432;6.880;2023-04-01T04:58:16;98612.00;;;24.90
12061;BMP180;6091;51.432;6.880;2023-04-01T05:00:44;98608.00;;;24.90
12061;BMP180;6091;51.432;6.880;2023-04-01T05:03:13;98614.00;;;24.90
12061;BMP180;6091;51.432;6.880;2023-04-01T05:05:50;98610.00;;;24.90
12061;BMP180;6091;51.432;6.880;2023-04-01T05:08:18;98614.00;;;24.90
12061;BMP180;6091;51.432;6.880;2023-04-01T05:10:45;98615.00;;;24.90
12061;BMP180;6091;51.432;6.880;2023-04-01T05:13:12;98615.00;;;24.90
12061;BMP180;6091;51.432;6.880;2023-04-01T05:15:40;98619.00;;;24.90
12061;BMP180;6091;51.432;6.880;2023-04-01T05:18:07;98620.00;;;24.90
12061;BMP180;6091;51.432;6.880;2023-04-01T05:20:34;98622.00;;;24.90
12061;BMP180;6091;51.432;6.880;2023-04-01T05:23:01;98619.00;;;24.90
12061;BMP180;6091;51.432;6.880;2023-04-01T05:25:29;98622.00;;;24.90
12061;BMP180;6091;51.432;6.880;2023-04-01T05:27:56;98626.00;;;24.90
12061;BMP180;6091;51.432;6.880;2023-04-01T05:30:24;98633.00;;;24.90
12061;BMP180;6091;51.432;6.880;2023-04-01T05:32:50;98631.00;;;24.90
12061;BMP180;6091;51.432;6.880;2023-04-01T05:35:18;98627.00;;;24.90
12061;BMP180;6091;51.432;6.880;2023-04-01T05:37:45;98629.00;;;24.90
12061;BMP180;6091;51.432;6.880;2023-04-01T05:40:12;98630.00;;;24.90
12061;BMP180;6091;51.432;6.880;2023-04-01T05:42:39;98639.00;;;24.90
12061;BMP180;6091;51.432;6.880;2023-04-01T05:45:07;98638.00;;;24.90
12061;BMP180;6091;51.432;6.880;2023-04-01T05:47:35;98640.00;;;24.90
12061;BMP180;6091;51.432;6.880;2023-04-01T05:50:02;98638.00;;;24.90
12061;BMP180;6091;51.432;6.880;2023-04-01T05:52:29;98639.00;;;25.00
12061;BMP180;6091;51.432;6.880;2023-04-01T05:54:56;98640.00;;;25.00
12061;BMP180;6091;51.432;6.880;2023-04-01T05:57:23;98644.00;;;24.90
12061;BMP180;6091;51.432;6.880;2023-04-01T05:59:50;98634.00;;;25.00
12061;BMP180;6091;51.432;6.880;2023-04-01T06:02:18;98643.00;;;24.90
12061;BMP180;6091;51.432;6.880;2023-04-01T06:04:45;98630.00;;;24.90
12061;BMP180;6091;51.432;6.880;2023-04-01T06:07:16;98652.00;;;24.90
12061;BMP180;6091;51.432;6.880;2023-04-01T06:09:44;98655.00;;;24.90
12061;BMP180;6091;51.432;6.880;2023-04-01T06:12:43;98651.00;;;24.90
12061;BMP180;6091;51.432;6.880;2023-04-01T06:24:38;98662.00;;;24.90
12061;BMP180;6091;51.432;6.880;2023-04-01T06:33:20;98669.00;;;24.90
12061;BMP180;6091;51.432;6.880;2023-04-01T06:39:20;98673.00;;;24.90
12061;BMP180;6091;51.432;6.880;2023-04-01T06:53:49;98673.00;;;24.80
12061;BMP180;6091;51.432;6.880;2023-04-01T06:56:25;98678.00;;;24.90
12061;BMP180;6091;51.432;6.880;2023-04-01T06:59:22;98679.00;;;24.90
12061;BMP180;6091;51.432;6.880;2023-04-01T07:04:46;98689.00;;;24.90
12061;BMP180;6091;51.432;6.880;2023-04-01T07:07:52;98690.00;;;24.90
12061;BMP180;6091;51.432;6.880;2023-04-01T07:10:55;98690.00;;;24.90
12061;BMP180;6091;51.432;6.880;2023-04-01T07:13:36;98680.00;;;24.90
12061;BMP180;6091;51.432;6.880;2023-04-01T07:16:15;98697.00;;;24.90
12061;BMP180;6091;51.432;6.880;2023-04-01T07:19:01;98701.00;;;24.90
12061;BMP180;6091;51.432;6.880;2023-04-01T07:21:53;98697.00;;;24.90
12061;BMP180;6091;51.432;6.880;2023-04-01T07:24:29;98692.00;;;24.90
12061;BMP180;6091;51.432;6.880;2023-04-01T07:26:59;98695.00;;;25.00
12061;BMP180;6091;51.432;6.880;2023-04-01T07:29:26;98708.00;;;25.00
12061;BMP180;6091;51.432;6.880;2023-04-01T07:32:39;98712.00;;;25.00
12061;BMP180;6091;51.432;6.880;2023-04-01T07:36:20;98713.00;;;25.00
12061;BMP180;6091;51.432;6.880;2023-04-01T07:51:03;98728.00;;;24.90
12061;BMP180;6091;51.432;6.880;2023-04-01T07:53:38;98730.00;;;24.90
12061;BMP180;6091;51.432;6.880;2023-04-01T07:57:02;98741.00;;;24.90
12061;BMP180;6091;51.432;6.880;2023-04-01T08:03:02;98744.00;;;24.80
12061;BMP180;6091;51.432;6.880;2023-04-01T08:05:53;98752.00;;;24.80
12061;BMP180;6091;51.432;6.880;2023-04-01T08:08:58;98753.00;;;24.80
12061;BMP180;6091;51.432;6.880;2023-04-01T08:14:47;98754.00;;;24.80
12061;BMP180;6091;51.432;6.880;2023-04-01T08:17:35;98770.00;;;24.80
12061;BMP180;6091;51.432;6.880;2023-04-01T08:20:37;98760.00;;;24.80
12061;BMP180;6091;51.432;6.880;2023-04-01T08:23:15;98776.00;;;24.90
12061;BMP180;6091;51.432;6.880;2023-04-01T08:28:51;98782.00;;;24.90
12061;BMP180;6091;51.432;6.880;2023-04-01T08:31:31;98782.00;;;24.90
12061;BMP180;6091;51.432;6.880;2023-04-01T08:34:03;98788.00;;;24.90
12061;BMP180;6091;51.432;6.880;2023-04-01T08:36:40;98781.00;;;24.90
12061;BMP180;6091;51.432;6.880;2023-04-01T08:39:18;98796.00;;;24.90
12061;BMP180;6091;51.432;6.880;2023-04-01T08:44:46;98794.00;;;24.90
12061;BMP180;6091;51.432;6.880;2023-04-01T09:16:20;98824.00;;;25.00
12061;BMP180;6091;51.432;6.880;2023-04-01T09:19:15;98832.00;;;25.00
12061;BMP180;6091;51.432;6.880;2023-04-01T09:22:22;98841.00;;;25.00
12061;BMP180;6091;51.432;6.880;2023-04-01T09:25:29;98841.00;;;25.00
12061;BMP180;6091;51.432;6.880;2023-04-01T09:28:41;98845.00;;;25.10
12061;BMP180;6091;51.432;6.880;2023-04-01T09:34:53;98850.00;;;25.10
12061;BMP180;6091;51.432;6.880;2023-04-01T09:37:45;98849.00;;;25.20
12061;BMP180;6091;51.432;6.880;2023-04-01T09:46:15;98860.00;;;25.20
12061;BMP180;6091;51.432;6.880;2023-04-01T09:49:21;98861.00;;;25.30
12061;BMP180;6091;51.432;6.880;2023-04-01T09:52:20;98867.00;;;25.30
12061;BMP180;6091;51.432;6.880;2023-04-01T10:07:28;98877.00;;;25.30
12061;BMP180;6091;51.432;6.880;2023-04-01T10:13:21;98876.00;;;25.30
12061;BMP180;6091;51.432;6.880;2023-04-01T10:25:55;98895.00;;;25.40
12061;BMP180;6091;51.432;6.880;2023-04-01T10:29:48;98899.00;;;25.40
12061;BMP180;6091;51.432;6.880;2023-04-01T10:47:39;98911.00;;;25.40
12061;BMP180;6091;51.432;6.880;2023-04-01T11:02:16;98926.00;;;25.30
12061;BMP180;6091;51.432;6.880;2023-04-01T11:20:33;98942.00;;;25.40
12061;BMP180;6091;51.432;6.880;2023-04-01T11:24:14;98945.00;;;25.40
12061;BMP180;6091;51.432;6.880;2023-04-01T11:26:57;98947.00;;;25.40
12061;BMP180;6091;51.432;6.880;2023-04-01T11:35:28;98957.00;;;25.50
12061;BMP180;6091;51.432;6.880;2023-04-01T11:38:26;98965.00;;;25.50
12061;BMP180;6091;51.432;6.880;2023-04-01T11:41:25;98969.00;;;25.50
12061;BMP180;6091;51.432;6.880;2023-04-01T11:49:57;98970.00;;;25.40
12061;BMP180;6091;51.432;6.880;2023-04-01T11:56:17;98982.00;;;25.40
12061;BMP180;6091;51.432;6.880;2023-04-01T11:59:01;98991.00;;;25.40
12061;BMP180;6091;51.432;6.880;2023-04-01T12:02:07;98990.00;;;25.40
12061;BMP180;6091;51.432;6.880;2023-04-01T12:04:54;99002.00;;;25.40
12061;BMP180;6091;51.432;6.880;2023-04-01T12:11:24;99009.00;;;25.30
12061;BMP180;6091;51.432;6.880;2023-04-01T12:14:32;99007.00;;;25.20
12061;BMP180;6091;51.432;6.880;2023-04-01T12:26:09;99024.00;;;25.20
12061;BMP180;6091;51.432;6.880;2023-04-01T12:38:10;99040.00;;;25.30
12061;BMP180;6091;51.432;6.880;2023-04-01T12:40:54;99038.00;;;25.30
12061;BMP180;6091;51.432;6.880;2023-04-01T12:49:46;99043.00;;;25.30
12061;BMP180;6091;51.432;6.880;2023-04-01T12:55:43;99048.00;;;25.40
12061;BMP180;6091;51.432;6.880;2023-04-01T13:05:01;99068.00;;;25.40
12061;BMP180;6091;51.432;6.880;2023-04-01T13:29:05;99099.00;;;25.30
12061;BMP180;6091;51.432;6.880;2023-04-01T13:32:42;99106.00;;;25.30
12061;BMP180;6091;51.432;6.880;2023-04-01T13:35:40;99110.00;;;25.30
12061;BMP180;6091;51.432;6.880;2023-04-01T13:38:19;99112.00;;;25.40
12061;BMP180;6091;51.432;6.880;2023-04-01T13:44:20;99103.00;;;25.40
12061;BMP180;6091;51.432;6.880;2023-04-01T13:56:28;99113.00;;;25.50
12061;BMP180;6091;51.432;6.880;2023-04-01T14:02:28;99119.00;;;25.50
12061;BMP180;6091;51.432;6.880;2023-04-01T14:18:10;99127.00;;;25.50
12061;BMP180;6091;51.432;6.880;2023-04-01T14:23:42;99144.00;;;25.60
12061;BMP180;6091;51.432;6.880;2023-04-01T14:26:53;99148.00;;;25.50
12061;BMP180;6091;51.432;6.880;2023-04-01T14:29:33;99147.00;;;25.90
12061;BMP180;6091;51.432;6.880;2023-04-01T14:32:16;99157.00;;;25.70
12061;BMP180;6091;51.432;6.880;2023-04-01T14:35:13;99155.00;;;25.70
12061;BMP180;6091;51.432;6.880;2023-04-01T14:49:30;99171.00;;;25.60
12061;BMP180;6091;51.432;6.880;2023-04-01T14:52:11;99170.00;;;25.60
12061;BMP180;6091;51.432;6.880;2023-04-01T14:54:46;99168.00;;;25.60
12061;BMP180;6091;51.432;6.880;2023-04-01T14:57:31;99177.00;;;25.60
12061;BMP180;6091;51.432;6.880;2023-04-01T15:00:15;99183.00;;;25.60
12061;BMP180;6091;51.432;6.880;2023-04-01T15:05:50;99190.00;;;25.60
12061;BMP180;6091;51.432;6.880;2023-04-01T15:09:21;99194.00;;;25.60
12061;BMP180;6091;51.432;6.880;2023-04-01T15:16:14;99198.00;;;25.50
12061;BMP180;6091;51.432;6.880;2023-04-01T15:34:34;99213.00;;;25.60
12061;BMP180;6091;51.432;6.880;2023-04-01T15:37:48;99224.00;;;25.60
12061;BMP180;6091;51.432;6.880;2023-04-01T15:46:43;99235.00;;;25.70
12061;BMP180;6091;51.432;6.880;2023-04-01T15:49:37;99243.00;;;25.70
12061;BMP180;6091;51.432;6.880;2023-04-01T15:52:34;99238.00;;;25.70
12061;BMP180;6091;51.432;6.880;2023-04-01T16:00:57;99249.00;;;25.80
12061;BMP180;6091;51.432;6.880;2023-04-01T16:07:10;99255.00;;;25.70
12061;BMP180;6091;51.432;6.880;2023-04-01T16:10:22;99255.00;;;25.70
12061;BMP180;6091;51.432;6.880;2023-04-01T16:22:35;99275.00;;;25.70
12061;BMP180;6091;51.432;6.880;2023-04-01T16:25:33;99276.00;;;25.60
12061;BMP180;6091;51.432;6.880;2023-04-01T16:28:47;99274.00;;;25.60
12061;BMP180;6091;51.432;6.880;2023-04-01T16:35:23;99289.00;;;25.60
12061;BMP180;6091;51.432;6.880;2023-04-01T16:38:46;99283.00;;;25.60
12061;BMP180;6091;51.432;6.880;2023-04-01T16:41:34;99289.00;;;25.60
12061;BMP180;6091;51.432;6.880;2023-04-01T16:44:24;99296.00;;;25.60
12061;BMP180;6091;51.432;6.880;2023-04-01T16:46:59;99304.00;;;25.60
12061;BMP180;6091;51.432;6.880;2023-04-01T16:58:48;99316.00;;;25.60
12061;BMP180;6091;51.432;6.880;2023-04-01T17:01:27;99321.00;;;25.60
12061;BMP180;6091;51.432;6.880;2023-04-01T17:04:15;99332.00;;;25.60
12061;BMP180;6091;51.432;6.880;2023-04-01T17:21:10;99351.00;;;25.70
12061;BMP180;6091;51.432;6.880;2023-04-01T17:23:52;99343.00;;;25.70
12061;BMP180;6091;51.432;6.880;2023-04-01T17:26:42;99359.00;;;25.70
12061;BMP180;6091;51.432;6.880;2023-04-01T17:35:24;99368.00;;;25.70
12061;BMP180;6091;51.432;6.880;2023-04-01T17:38:03;99374.00;;;25.70
12061;BMP180;6091;51.432;6.880;2023-04-01T17:49:33;99396.00;;;25.60
12061;BMP180;6091;51.432;6.880;2023-04-01T17:52:46;99403.00;;;25.60
12061;BMP180;6091;51.432;6.880;2023-04-01T17:58:29;99412.00;;;25.60
12061;BMP180;6091;51.432;6.880;2023-04-01T18:01:24;99418.00;;;25.50
12061;BMP180;6091;51.432;6.880;2023-04-01T18:10:35;99428.00;;;25.60
12061;BMP180;6091;51.432;6.880;2023-04-01T18:16:46;99434.00;;;25.70
12061;BMP180;6091;51.432;6.880;2023-04-01T18:22:41;99458.00;;;25.50
12061;BMP180;6091;51.432;6.880;2023-04-01T18:28:35;99463.00;;;25.50
12061;BMP180;6091;51.432;6.880;2023-04-01T18:36:38;99471.00;;;25.50
12061;BMP180;6091;51.432;6.880;2023-04-01T18:39:17;99478.00;;;25.50
12061;BMP180;6091;51.432;6.880;2023-04-01T18:42:20;99484.00;;;25.50
12061;BMP180;6091;51.432;6.880;2023-04-01T18:45:01;99480.00;;;25.50
12061;BMP180;6091;51.432;6.880;2023-04-01T18:47:54;99477.00;;;25.50
12061;BMP180;6091;51.432;6.880;2023-04-01T18:51:03;99494.00;;;25.40
12061;BMP180;6091;51.432;6.880;2023-04-01T18:57:21;99504.00;;;25.40
12061;BMP180;6091;51.432;6.880;2023-04-01T19:00:02;99495.00;;;25.40
12061;BMP180;6091;51.432;6.880;2023-04-01T19:05:19;99505.00;;;25.40
12061;BMP180;6091;51.432;6.880;2023-04-01T19:11:20;99507.00;;;25.30
12061;BMP180;6091;51.432;6.880;2023-04-01T19:19:56;99498.00;;;25.30
12061;BMP180;6091;51.432;6.880;2023-04-01T19:23:02;99522.00;;;25.30
12061;BMP180;6091;51.432;6.880;2023-04-01T19:25:51;99524.00;;;25.30
12061;BMP180;6091;51.432;6.880;2023-04-01T19:36:50;99537.00;;;25.20
12061;BMP180;6091;51.432;6.880;2023-04-01T19:42:25;99545.00;;;25.20
12061;BMP180;6091;51.432;6.880;2023-04-01T19:54:28;99573.00;;;25.10
12061;BMP180;6091;51.432;6.880;2023-04-01T20:00:04;99584.00;;;25.20
12061;BMP180;6091;51.432;6.880;2023-04-01T20:03:00;99596.00;;;25.20
12061;BMP180;6091;51.432;6.880;2023-04-01T20:06:09;99606.00;;;25.20
12061;BMP180;6091;51.432;6.880;2023-04-01T20:12:01;99622.00;;;25.20
12061;BMP180;6091;51.432;6.880;2023-04-01T20:14:57;99626.00;;;25.20
12061;BMP180;6091;51.432;6.880;2023-04-01T20:17:43;99629.00;;;25.20
12061;BMP180;6091;51.432;6.880;2023-04-01T20:31:09;99660.00;;;25.20
12061;BMP180;6091;51.432;6.880;2023-04-01T20:34:04;99670.00;;;25.20
12061;BMP180;6091;51.432;6.880;2023-04-01T20:36:34;99671.00;;;25.20
12061;BMP180;6091;51.432;6.880;2023-04-01T20:43:03;99677.00;;;25.20
12061;BMP180;6091;51.432;6.880;2023-04-01T20:45:33;99692.00;;;25.20
12061;BMP180;6091;51.432;6.880;2023-04-01T20:48:33;99689.00;;;25.10
12061;BMP180;6091;51.432;6.880;2023-04-01T20:51:07;99706.00;;;25.10
12061;BMP180;6091;51.432;6.880;2023-04-01T21:14:56;99735.00;;;25.00
12061;BMP180;6091;51.432;6.880;2023-04-01T21:32:05;99783.00;;;24.90
12061;BMP180;6091;51.432;6.880;2023-04-01T21:38:17;99793.00;;;24.90
12061;BMP180;6091;51.432;6.880;2023-04-01T22:23:20;99893.00;;;24.90
12061;BMP180;6091;51.432;6.880;2023-04-01T22:29:44;99906.00;;;24.90
12061;BMP180;6091;51.432;6.880;2023-04-01T22:32:23;99908.00;;;24.70
12061;BMP180;6091;51.432;6.880;2023-04-01T22:38:29;99927.00;;;24.90
12061;BMP180;6091;51.432;6.880;2023-04-01T22:41:08;99926.00;;;24.90
12061;BMP180;6091;51.432;6.880;2023-04-01T22:43:41;99927.00;;;24.90
12061;BMP180;6091;51.432;6.880;2023-04-01T22:46:55;99940.00;;;24.90
12061;BMP180;6091;51.432;6.880;2023-04-01T22:49:41;99952.00;;;24.80
12061;BMP180;6091;51.432;6.880;2023-04-01T22:52:31;99954.00;;;24.80
12061;BMP180;6091;51.432;6.880;2023-04-01T22:55:29;99961.00;;;24.80
12061;BMP180;6091;51.432;6.880;2023-04-01T23:00:40;99968.00;;;24.80
12061;BMP180;6091;51.432;6.880;2023-04-01T23:06:03;99983.00;;;24.80
12061;BMP180;6091;51.432;6.880;2023-04-01T23:08:51;100000.00;;;24.80
12061;BMP180;6091;51.432;6.880;2023-04-01T23:11:37;99998.00;;;24.80
12061;BMP180;6091;51.432;6.880;2023-04-01T23:14:32;100007.00;;;24.70
12061;BMP180;6091;51.432;6.880;2023-04-01T23:20:24;100017.00;;;24.70
12061;BMP180;6091;51.432;6.880;2023-04-01T23:28:40;100035.00;;;24.70
12061;BMP180;6091;51.432;6.880;2023-04-01T23:32:21;100032.00;;;24.70
12061;BMP180;6091;51.432;6.880;2023-04-01T23:34:34;100046.00;;;24.70
12061;BMP180;6091;51.432;6.880;2023-04-01T23:37:08;100043.00;;;24.70
12061;BMP180;6091;51.432;6.880;2023-04-01T23:39:43;100052.00;;;24.70
12061;BMP180;6091;51.432;6.880;2023-04-01T23:42:33;100058.00;;;24.70
12061;BMP180;6091;51.432;6.880;2023-04-01T23:45:15;100067.00;;;24.70
12061;BMP180;6091;51.432;6.880;2023-04-01T23:47:49;100064.00;;;24.70
12061;BMP180;6091;51.432;6.880;2023-04-01T23:50:25;100080.00;;;24.80
12061;BMP180;6091;51.432;6.880;2023-04-01T23:53:11;100078.00;;;24.80
12061;BMP180;6091;51.432;6.880;2023-04-01T23:55:41;100093.00;;;24.70
